Time;durP1;ratioP1;P1;durP2;ratioP2;P2;SDS_P1;SDS_P2;PMS_P1;PMS_P2;Temp;Humidity;BMP_temperature;BMP_pressure;BME280_temperature;BME280_humidity;BME280_pressure;Samples;Min_cycle;Max_cycle;Signal;HPM_P1;HPM_P2
2023/01/29 00:00:30;;;;;;;18.43;9.70;;;-1.30;99.90;;;;;;7686807;29;20212;-92
2023/01/29 00:04:17;;;;;;;20.03;8.90;;;-1.40;99.90;;;;;;7686114;28;20599;-92
2023/01/29 00:08:02;;;;;;;16.70;8.93;;;-1.40;99.90;;;;;;7686327;29;20180;-93
2023/01/29 00:11:48;;;;;;;18.87;9.20;;;-1.40;99.90;;;;;;7686541;29;20185;-93
2023/01/29 00:15:34;;;;;;;17.63;9.27;;;-1.30;99.90;;;;;;7686192;29;20699;-91
2023/01/29 00:19:19;;;;;;;16.43;8.83;;;-1.40;99.90;;;;;;7697575;29;20218;-92
2023/01/29 00:23:05;;;;;;;19.40;9.03;;;-1.40;99.90;;;;;;7688043;29;20248;-92
2023/01/29 00:26:51;;;;;;;18.63;9.50;;;-1.50;99.90;;;;;;7686659;29;20179;-92
2023/01/29 00:30:37;;;;;;;16.80;8.90;;;-1.50;99.90;;;;;;7686047;29;20183;-92
2023/01/29 00:34:22;;;;;;;18.60;9.00;;;-1.50;99.90;;;;;;7685642;29;20366;-92
2023/01/29 00:38:08;;;;;;;15.40;8.03;;;-1.50;99.90;;;;;;7681350;29;20803;-92
2023/01/29 00:46:10;;;;;;;15.73;7.90;;;-1.50;99.90;;;;;;7686653;29;20189;-92
2023/01/29 00:49:56;;;;;;;14.43;7.90;;;-1.50;99.90;;;;;;7684906;29;20183;-93
2023/01/29 00:53:49;;;;;;;16.27;7.97;;;-1.50;99.90;;;;;;7685150;29;20212;-92
2023/01/29 00:57:35;;;;;;;13.90;7.50;;;-1.50;99.90;;;;;;7685057;29;20304;-92
2023/01/29 01:05:26;;;;;;;13.53;7.13;;;-1.50;99.90;;;;;;7686907;29;20199;-92
2023/01/29 01:13:16;;;;;;;16.67;7.63;;;-1.40;99.90;;;;;;7686874;28;20212;-92
2023/01/29 01:17:02;;;;;;;15.63;7.70;;;-1.40;99.90;;;;;;7689562;29;20259;-92
2023/01/29 01:20:50;;;;;;;14.27;7.77;;;-1.40;99.90;;;;;;7691420;29;20186;-92
2023/01/29 01:24:37;;;;;;;14.63;7.27;;;-1.60;99.90;;;;;;7686849;29;20214;-92
2023/01/29 01:28:22;;;;;;;19.67;7.93;;;-1.50;99.90;;;;;;7690433;29;20647;-92
2023/01/29 01:32:08;;;;;;;14.73;7.90;;;-1.50;99.90;;;;;;7692223;29;20604;-93
2023/01/29 01:35:54;;;;;;;11.80;6.80;;;-1.40;99.90;;;;;;7690237;29;20228;-92
2023/01/29 01:39:40;;;;;;;12.70;6.97;;;-1.40;99.90;;;;;;7690226;29;20556;-92
2023/01/29 01:43:25;;;;;;;16.87;7.87;;;-1.50;99.90;;;;;;7690633;29;20208;-92
2023/01/29 01:47:11;;;;;;;15.50;7.77;;;-1.50;99.90;;;;;;7689836;29;20653;-92
2023/01/29 01:51:05;;;;;;;12.87;7.10;;;-1.50;99.90;;;;;;7690459;29;20223;-92
2023/01/29 01:54:51;;;;;;;15.10;7.63;;;-1.50;99.90;;;;;;7690179;29;20712;-93
2023/01/29 01:58:44;;;;;;;12.37;7.27;;;-1.50;99.90;;;;;;7690214;29;20572;-92
2023/01/29 02:10:44;;;;;;;12.77;7.77;;;-1.50;99.90;;;;;;7691653;29;20170;-92
2023/01/29 02:14:30;;;;;;;13.70;7.73;;;-1.50;99.90;;;;;;7689675;29;20212;-92
2023/01/29 02:18:19;;;;;;;12.43;7.50;;;-1.50;99.90;;;;;;7689155;29;20595;-92
2023/01/29 02:22:08;;;;;;;12.63;7.80;;;-1.50;99.90;;;;;;7689625;29;20192;-92
2023/01/29 02:26:22;;;;;;;14.03;8.47;;;-1.60;99.90;;;;;;7688708;28;20200;-93
2023/01/29 02:30:13;;;;;;;16.03;8.63;;;-1.50;99.90;;;;;;7706609;29;20177;-91
2023/01/29 02:34:13;;;;;;;14.73;8.90;;;-1.50;99.90;;;;;;7694463;29;20201;-92
2023/01/29 02:38:23;;;;;;;18.13;8.73;;;-1.60;99.90;;;;;;7688760;29;20631;-92
2023/01/29 02:42:19;;;;;;;17.97;9.47;;;-1.60;99.90;;;;;;7689124;29;20233;-92
2023/01/29 02:46:31;;;;;;;16.33;9.03;;;-1.60;99.90;;;;;;7689015;29;20308;-92
2023/01/29 02:50:24;;;;;;;18.47;9.90;;;-1.70;99.90;;;;;;7688856;29;20209;-92
2023/01/29 02:54:20;;;;;;;18.30;10.30;;;-1.70;99.90;;;;;;7688255;29;20219;-92
2023/01/29 03:03:03;;;;;;;17.30;9.70;;;-1.60;99.90;;;;;;7889637;23;20237;-88
2023/01/29 05:45:00;;;;;;;21.93;11.73;;;-2.70;99.90;;;;;;7681812;28;20221;-90
2023/01/29 05:48:45;;;;;;;21.97;11.13;;;-2.70;99.90;;;;;;7681296;28;20208;-88
2023/01/29 05:52:31;;;;;;;23.17;11.53;;;-2.70;99.90;;;;;;7676506;29;20575;-90
2023/01/29 07:18:48;;;;;;;19.53;11.13;;;-2.60;99.90;;;;;;9169027;23;20367;-87
2023/01/29 07:22:33;;;;;;;20.87;11.90;;;-2.50;99.90;;;;;;7715434;28;20673;-88
2023/01/29 07:26:19;;;;;;;22.33;12.47;;;-2.50;99.90;;;;;;7714490;28;20177;-86
2023/01/29 07:30:06;;;;;;;26.73;12.43;;;-2.50;99.90;;;;;;7715254;28;20205;-88
2023/01/29 07:45:39;;;;;;;19.70;11.13;;;-2.50;99.90;;;;;;7915970;23;20298;-87
2023/01/29 07:49:25;;;;;;;20.40;11.30;;;-2.50;99.90;;;;;;7717604;28;20195;-86
2023/01/29 07:53:13;;;;;;;17.80;10.80;;;-2.50;99.90;;;;;;7718663;28;20199;-90
2023/01/29 07:56:59;;;;;;;19.97;11.17;;;-2.60;99.90;;;;;;7727738;28;20262;-90
2023/01/29 08:00:45;;;;;;;17.90;11.00;;;-2.60;99.90;;;;;;7732280;28;20818;-87
2023/01/29 08:04:30;;;;;;;19.87;10.23;;;-2.60;99.90;;;;;;7729560;28;20690;-90
2023/01/29 08:08:16;;;;;;;22.23;10.80;;;-2.60;99.90;;;;;;7720138;28;20185;-89
2023/01/29 08:12:02;;;;;;;19.63;10.40;;;-2.70;99.90;;;;;;7730876;28;20216;-89
2023/01/29 08:15:48;;;;;;;21.67;10.47;;;-2.70;99.90;;;;;;7722972;28;20673;-89
2023/01/29 08:19:33;;;;;;;23.43;11.73;;;-2.60;99.90;;;;;;7719382;28;20220;-84
2023/01/29 08:23:19;;;;;;;20.03;10.90;;;-2.60;99.90;;;;;;7729347;28;20214;-91
2023/01/29 08:27:04;;;;;;;22.63;11.70;;;-2.50;99.90;;;;;;7743444;28;20244;-91
2023/01/29 08:30:50;;;;;;;22.90;12.13;;;-2.40;99.90;;;;;;7742879;28;20259;-91
2023/01/29 08:34:36;;;;;;;16.77;10.23;;;-2.30;99.90;;;;;;7726411;28;20215;-84
2023/01/29 08:38:21;;;;;;;20.73;11.17;;;-2.30;99.90;;;;;;7736979;28;20294;-86
2023/01/29 08:42:07;;;;;;;23.47;12.27;;;-2.20;99.90;;;;;;7729384;28;20218;-86
2023/01/29 08:45:53;;;;;;;24.33;13.70;;;-2.20;99.90;;;;;;7731806;28;20211;-91
2023/01/29 08:49:38;;;;;;;22.53;12.77;;;-2.20;99.90;;;;;;7724649;28;20192;-88
2023/01/29 08:53:25;;;;;;;20.67;11.57;;;-2.20;99.90;;;;;;7744221;28;20298;-87
2023/01/29 08:57:11;;;;;;;25.87;11.87;;;-2.20;99.90;;;;;;7728707;28;20274;-89
2023/01/29 09:01:06;;;;;;;20.13;10.80;;;-2.20;99.90;;;;;;7721870;28;20211;-89
2023/01/29 09:04:51;;;;;;;17.10;8.60;;;-2.10;99.90;;;;;;7727307;28;20243;-88
2023/01/29 09:08:38;;;;;;;21.27;11.50;;;-2.10;99.90;;;;;;7731254;28;20196;-81
2023/01/29 09:12:24;;;;;;;20.50;11.47;;;-2.20;99.90;;;;;;7731024;28;20244;-84
2023/01/29 09:16:09;;;;;;;20.63;11.67;;;-2.10;99.90;;;;;;7731078;28;20195;-83
2023/01/29 09:19:55;;;;;;;20.27;10.60;;;-2.00;99.90;;;;;;7742797;28;20215;-83
2023/01/29 09:23:40;;;;;;;21.70;11.30;;;-2.10;99.90;;;;;;7737451;28;20204;-83
2023/01/29 09:27:26;;;;;;;25.87;12.10;;;-2.00;99.90;;;;;;7743496;28;20653;-83
2023/01/29 09:31:12;;;;;;;17.83;10.70;;;-2.00;99.90;;;;;;7738549;28;20236;-84
2023/01/29 09:34:58;;;;;;;21.50;11.30;;;-2.00;99.90;;;;;;7740864;28;20193;-84
2023/01/29 09:38:44;;;;;;;22.00;11.43;;;-1.90;99.90;;;;;;7725486;28;20203;-83
2023/01/29 09:42:41;;;;;;;22.80;10.70;;;-1.80;99.90;;;;;;7720990;28;20193;-83
2023/01/29 09:46:43;;;;;;;19.30;11.20;;;-1.80;99.90;;;;;;7719307;28;20190;-84
2023/01/29 09:50:35;;;;;;;21.30;11.83;;;-1.70;99.90;;;;;;7720102;28;20169;-84
2023/01/29 09:54:26;;;;;;;26.37;13.77;;;-1.70;99.90;;;;;;7748422;28;20320;-84
2023/01/29 09:58:20;;;;;;;24.57;11.70;;;-1.60;99.90;;;;;;7734824;28;20203;-89
2023/01/29 10:02:52;;;;;;;19.77;10.93;;;-1.60;99.90;;;;;;7730263;28;20203;-88
2023/01/29 10:06:53;;;;;;;35.17;19.50;;;-1.60;99.90;;;;;;7733002;28;20188;-87
2023/01/29 10:10:54;;;;;;;22.40;12.70;;;-1.50;99.90;;;;;;7737332;28;20175;-87
2023/01/29 10:14:49;;;;;;;22.33;11.90;;;-1.60;99.90;;;;;;7720478;28;20205;-85
2023/01/29 10:19:21;;;;;;;22.27;12.07;;;-1.50;99.90;;;;;;7727096;28;20223;-84
2023/01/29 10:23:32;;;;;;;21.07;11.77;;;-1.50;99.90;;;;;;7741993;28;20204;-85
2023/01/29 10:27:18;;;;;;;24.47;12.03;;;-1.50;99.90;;;;;;7728442;28;20183;-85
2023/01/29 10:31:12;;;;;;;22.30;10.77;;;-1.50;99.90;;;;;;7732175;28;20184;-89
2023/01/29 10:35:23;;;;;;;20.47;10.87;;;-1.40;99.90;;;;;;7737846;28;20184;-88
2023/01/29 10:39:20;;;;;;;19.67;10.53;;;-1.40;99.90;;;;;;7747873;28;20309;-87
2023/01/29 10:43:19;;;;;;;23.33;12.30;;;-1.40;99.90;;;;;;7739964;28;20234;-90
2023/01/29 10:47:35;;;;;;;20.03;11.20;;;-1.30;99.90;;;;;;7747912;28;20196;-90
2023/01/29 10:51:40;;;;;;;23.77;12.93;;;-1.30;99.90;;;;;;7734846;28;20752;-90
2023/01/29 10:56:00;;;;;;;48.63;26.40;;;-1.30;99.90;;;;;;7725726;28;20165;-89
2023/01/29 11:00:12;;;;;;;46.70;22.53;;;-1.30;99.90;;;;;;7718297;28;20267;-90
2023/01/29 11:04:03;;;;;;;20.00;11.50;;;-1.20;99.90;;;;;;7744614;28;20691;-89
2023/01/29 11:07:59;;;;;;;24.70;13.37;;;-1.20;99.90;;;;;;7745793;28;20865;-91
2023/01/29 11:12:04;;;;;;;30.87;16.50;;;-1.10;99.90;;;;;;7737617;28;20208;-91
2023/01/29 11:15:51;;;;;;;26.30;14.50;;;-1.10;99.90;;;;;;7740698;28;20191;-90
2023/01/29 11:19:41;;;;;;;29.43;14.43;;;-1.10;99.90;;;;;;7734899;28;20207;-90
2023/01/29 11:23:32;;;;;;;27.53;16.33;;;-1.00;99.90;;;;;;7718044;28;20212;-91
2023/01/29 11:27:28;;;;;;;29.83;17.97;;;-1.00;99.90;;;;;;7739122;28;20201;-90
2023/01/29 11:31:20;;;;;;;23.20;15.17;;;-1.00;99.90;;;;;;7734337;28;20196;-91
2023/01/29 11:35:15;;;;;;;23.07;11.93;;;-1.00;99.90;;;;;;7733847;28;20282;-85
2023/01/29 11:39:14;;;;;;;24.80;12.33;;;-1.00;99.90;;;;;;7739821;28;20219;-89
2023/01/29 11:43:35;;;;;;;25.00;12.40;;;-0.90;99.90;;;;;;7738159;28;20278;-88
2023/01/29 11:47:26;;;;;;;23.07;12.30;;;-0.90;99.90;;;;;;7724687;28;20207;-90
2023/01/29 11:51:26;;;;;;;21.27;11.70;;;-0.80;99.90;;;;;;7718395;28;20193;-89
2023/01/29 11:55:19;;;;;;;65.00;39.13;;;-0.80;99.90;;;;;;7730408;28;20192;-90
2023/01/29 11:59:07;;;;;;;24.80;16.30;;;-0.80;99.90;;;;;;7721366;28;20554;-90
2023/01/29 12:03:18;;;;;;;24.57;11.70;;;-0.80;99.90;;;;;;7729900;28;20221;-90
2023/01/29 12:07:12;;;;;;;22.30;11.90;;;-0.80;99.90;;;;;;7730169;28;20350;-90
2023/01/29 12:11:11;;;;;;;23.57;12.40;;;-0.80;99.90;;;;;;7733685;28;20191;-89
2023/01/29 12:15:25;;;;;;;21.77;11.27;;;-0.70;99.90;;;;;;7733536;28;20559;-89
2023/01/29 12:19:37;;;;;;;21.63;11.60;;;-0.70;99.90;;;;;;7730209;28;20659;-90
2023/01/29 12:23:43;;;;;;;21.93;11.63;;;-0.70;99.90;;;;;;7736914;28;20213;-89
2023/01/29 12:27:29;;;;;;;19.03;10.67;;;-0.70;99.90;;;;;;7722132;28;20566;-89
2023/01/29 12:31:42;;;;;;;23.67;10.97;;;-0.70;99.90;;;;;;7729738;28;20183;-87
2023/01/29 12:35:41;;;;;;;21.27;10.80;;;-0.70;99.90;;;;;;7747070;28;20220;-86
2023/01/29 12:39:26;;;;;;;23.97;11.77;;;-0.60;99.90;;;;;;7734779;28;20381;-88
2023/01/29 12:43:17;;;;;;;19.43;10.47;;;-0.60;99.90;;;;;;7744774;28;20199;-88
2023/01/29 12:47:06;;;;;;;23.50;11.73;;;-0.60;99.90;;;;;;7733108;28;20203;-88
2023/01/29 12:51:14;;;;;;;25.07;11.97;;;-0.60;99.90;;;;;;7721228;28;20191;-88
2023/01/29 12:55:07;;;;;;;22.90;11.17;;;-0.50;99.90;;;;;;7733246;28;20199;-88
2023/01/29 12:58:56;;;;;;;22.67;11.60;;;-0.50;99.90;;;;;;7737167;28;20253;-90
2023/01/29 13:03:17;;;;;;;20.67;10.27;;;-0.40;99.90;;;;;;7745489;28;20227;-90
2023/01/29 13:07:22;;;;;;;19.93;11.00;;;-0.40;99.90;;;;;;7745055;28;20794;-90
2023/01/29 13:11:17;;;;;;;24.07;11.57;;;-0.40;99.90;;;;;;7748468;28;20727;-90
2023/01/29 13:15:14;;;;;;;20.83;11.17;;;-0.40;99.90;;;;;;7729880;28;20172;-90
2023/01/29 13:19:27;;;;;;;25.20;13.13;;;-0.40;99.90;;;;;;7721162;28;20235;-90
2023/01/29 13:23:19;;;;;;;22.70;12.57;;;-0.30;99.90;;;;;;7734857;28;20338;-91
2023/01/29 13:27:06;;;;;;;23.47;12.43;;;-0.40;99.90;;;;;;7750989;28;20180;-90
2023/01/29 13:31:19;;;;;;;22.13;12.00;;;-0.20;99.90;;;;;;7751245;28;20211;-90
2023/01/29 13:35:12;;;;;;;19.57;10.20;;;-0.20;99.90;;;;;;7744224;28;20274;-90
2023/01/29 13:39:06;;;;;;;24.00;11.07;;;-0.20;99.90;;;;;;7750522;28;20342;-90
2023/01/29 13:46:56;;;;;;;17.57;9.87;;;-0.20;99.90;;;;;;8874538;23;20263;-86
2023/01/29 13:50:45;;;;;;;24.30;12.00;;;-0.20;99.90;;;;;;7702434;28;20183;-86
2023/01/29 13:54:31;;;;;;;21.20;11.10;;;-0.20;99.90;;;;;;7718546;28;20196;-86
2023/01/29 13:58:42;;;;;;;21.03;10.97;;;-0.10;99.90;;;;;;7725247;28;20207;-85
2023/01/29 14:02:29;;;;;;;22.00;12.17;;;-0.10;99.90;;;;;;7689268;28;20186;-86
2023/01/29 14:06:40;;;;;;;19.83;10.53;;;-0.20;99.90;;;;;;7693069;28;20186;-87
2023/01/29 14:10:32;;;;;;;20.33;9.77;;;-0.10;99.90;;;;;;7702204;28;20234;-90
2023/01/29 14:15:14;;;;;;;21.10;11.10;;;-0.10;99.90;;;;;;7717567;28;20208;-88
2023/01/29 14:19:01;;;;;;;20.60;9.97;;;-0.10;99.90;;;;;;7716156;28;20216;-83
2023/01/29 14:22:56;;;;;;;17.80;9.93;;;-0.10;99.90;;;;;;7715662;28;20754;-87
2023/01/29 14:26:47;;;;;;;23.63;12.63;;;-0.10;99.90;;;;;;7701536;28;20185;-88
2023/01/29 14:30:34;;;;;;;23.10;12.57;;;0.00;99.90;;;;;;7709588;28;20221;-87
2023/01/29 14:34:22;;;;;;;22.00;12.23;;;-0.10;99.90;;;;;;7716515;28;20655;-87
2023/01/29 14:38:13;;;;;;;22.80;11.40;;;-0.10;99.90;;;;;;7717474;28;20215;-87
2023/01/29 14:42:03;;;;;;;21.17;10.07;;;0.00;99.90;;;;;;7711432;28;20279;-87
2023/01/29 14:45:50;;;;;;;22.17;11.33;;;-0.10;99.90;;;;;;7725088;28;20270;-87
2023/01/29 14:49:51;;;;;;;22.07;11.00;;;0.00;99.90;;;;;;7709598;28;20267;-87
2023/01/29 14:53:40;;;;;;;32.33;16.93;;;0.00;99.90;;;;;;7710732;28;20592;-87
2023/01/29 14:57:29;;;;;;;19.53;10.57;;;0.00;99.90;;;;;;7714723;28;20243;-87
2023/01/29 15:01:21;;;;;;;22.40;11.73;;;0.00;99.90;;;;;;7712719;28;20179;-87
2023/01/29 15:05:11;;;;;;;15.63;9.03;;;0.00;99.90;;;;;;7710760;28;20262;-87
2023/01/29 15:09:19;;;;;;;15.87;8.97;;;0.00;99.90;;;;;;7707677;28;20264;-87
2023/01/29 15:13:23;;;;;;;16.20;8.47;;;0.00;99.90;;;;;;7716927;28;20204;-87
2023/01/29 15:17:21;;;;;;;61.57;34.63;;;-0.10;99.90;;;;;;7703605;28;20209;-87
2023/01/29 15:21:16;;;;;;;58.90;30.53;;;-0.10;99.90;;;;;;7709837;28;20224;-87
2023/01/29 15:25:12;;;;;;;56.87;31.30;;;0.00;99.90;;;;;;7704046;28;20291;-86
2023/01/29 15:29:00;;;;;;;21.03;12.40;;;0.00;99.90;;;;;;7711701;28;20201;-87
2023/01/29 15:32:47;;;;;;;21.40;12.50;;;0.00;99.90;;;;;;7711925;28;20208;-87
2023/01/29 15:36:35;;;;;;;20.97;12.00;;;0.10;99.90;;;;;;7710662;28;20280;-87
2023/01/29 15:40:21;;;;;;;17.30;10.47;;;0.00;99.90;;;;;;7714176;28;20572;-87
2023/01/29 15:44:15;;;;;;;16.03;8.50;;;0.00;99.90;;;;;;7712766;28;20303;-87
2023/01/29 15:48:11;;;;;;;15.30;9.23;;;-0.10;99.90;;;;;;7702284;28;20197;-87
2023/01/29 15:52:02;;;;;;;21.50;11.93;;;0.00;99.90;;;;;;7711091;28;20189;-86
2023/01/29 15:55:50;;;;;;;13.60;7.13;;;-0.10;99.90;;;;;;7707930;28;20205;-86
2023/01/29 15:59:42;;;;;;;16.37;8.80;;;-0.10;99.90;;;;;;7705282;28;20228;-85
2023/01/29 16:03:32;;;;;;;16.57;8.90;;;-0.10;99.90;;;;;;7705283;28;20260;-87
2023/01/29 16:07:18;;;;;;;17.37;9.53;;;-0.10;99.90;;;;;;7705078;28;20189;-86
2023/01/29 16:11:05;;;;;;;16.97;9.20;;;-0.10;99.90;;;;;;7711596;28;20180;-86
2023/01/29 16:14:51;;;;;;;18.50;8.80;;;-0.20;99.90;;;;;;7709625;28;20239;-88
2023/01/29 16:18:38;;;;;;;14.80;8.10;;;0.00;99.90;;;;;;7715123;28;20216;-86
2023/01/29 16:22:28;;;;;;;13.43;7.90;;;-0.10;99.90;;;;;;7726258;28;20231;-86
2023/01/29 16:26:35;;;;;;;15.03;8.57;;;-0.10;99.90;;;;;;7727511;28;20220;-86
2023/01/29 16:30:25;;;;;;;21.17;9.23;;;-0.20;99.90;;;;;;7728754;28;20175;-87
2023/01/29 16:34:27;;;;;;;13.20;8.03;;;-0.20;99.90;;;;;;7725543;28;20527;-87
2023/01/29 16:38:28;;;;;;;14.27;8.57;;;-0.20;99.90;;;;;;7727167;28;20665;-87
2023/01/29 16:42:20;;;;;;;14.20;7.90;;;-0.20;99.90;;;;;;7725933;28;20176;-86
2023/01/29 16:46:31;;;;;;;15.00;7.63;;;-0.20;99.90;;;;;;7719083;28;20227;-86
2023/01/29 16:50:32;;;;;;;17.80;8.37;;;-0.10;99.90;;;;;;7717669;28;20272;-91
2023/01/29 16:54:22;;;;;;;18.20;9.23;;;-0.20;99.90;;;;;;7702725;28;20254;-88
2023/01/29 16:58:21;;;;;;;14.33;7.53;;;-0.20;99.90;;;;;;7710811;28;20207;-88
2023/01/29 17:02:25;;;;;;;18.83;9.77;;;-0.20;99.90;;;;;;7708500;28;20178;-91
2023/01/29 17:06:17;;;;;;;14.97;8.77;;;0.00;99.90;;;;;;7712108;28;20215;-89
2023/01/29 17:10:05;;;;;;;13.57;7.90;;;0.30;99.90;;;;;;7712037;28;20572;-89
2023/01/29 17:13:55;;;;;;;18.13;8.67;;;0.40;99.90;;;;;;7711838;28;20200;-88
2023/01/29 17:17:41;;;;;;;14.40;7.67;;;0.50;99.90;;;;;;7712156;28;20212;-88
2023/01/29 17:21:30;;;;;;;16.23;8.63;;;0.70;99.90;;;;;;7714316;28;20179;-89
2023/01/29 17:25:17;;;;;;;13.30;8.53;;;0.60;99.90;;;;;;7713393;28;20204;-89
2023/01/29 17:29:03;;;;;;;15.53;8.30;;;0.70;99.90;;;;;;7709448;28;20204;-89
2023/01/29 17:32:48;;;;;;;15.33;7.97;;;0.70;99.90;;;;;;7713543;28;20204;-84
2023/01/29 17:36:34;;;;;;;17.17;8.00;;;0.80;99.90;;;;;;7703100;28;20180;-85
2023/01/29 17:40:20;;;;;;;11.77;7.17;;;0.80;99.90;;;;;;7728979;28;20181;-89
2023/01/29 17:44:05;;;;;;;12.70;7.57;;;0.80;99.90;;;;;;7709475;28;20207;-87
2023/01/29 17:47:51;;;;;;;16.57;7.90;;;0.80;99.90;;;;;;7712135;28;20201;-89
2023/01/29 17:51:37;;;;;;;12.10;7.37;;;0.70;99.90;;;;;;7713950;28;20184;-88
2023/01/29 17:55:24;;;;;;;12.93;7.87;;;0.80;99.90;;;;;;7714792;28;20734;-89
2023/01/29 17:59:18;;;;;;;13.80;7.47;;;0.80;99.90;;;;;;7721935;28;20303;-88
2023/01/29 18:03:04;;;;;;;12.17;7.10;;;0.90;99.90;;;;;;7704159;28;20697;-89
2023/01/29 18:06:50;;;;;;;15.97;7.67;;;0.90;99.90;;;;;;7705959;28;20537;-89
2023/01/29 18:10:37;;;;;;;15.67;8.50;;;0.80;99.90;;;;;;7713624;28;20180;-89
2023/01/29 18:14:22;;;;;;;13.03;6.93;;;0.70;99.90;;;;;;7717729;28;20209;-90
2023/01/29 18:18:13;;;;;;;13.27;7.63;;;0.70;99.90;;;;;;7718172;28;20243;-88
2023/01/29 18:21:59;;;;;;;15.43;7.73;;;0.70;99.90;;;;;;7716123;28;20263;-90
2023/01/29 18:25:44;;;;;;;13.93;7.97;;;0.70;99.90;;;;;;7718299;28;20234;-88
2023/01/29 18:29:30;;;;;;;13.03;7.77;;;0.50;99.90;;;;;;7713053;28;20188;-88
2023/01/29 18:33:16;;;;;;;15.77;8.07;;;0.50;99.90;;;;;;7716998;28;20222;-90
2023/01/29 18:37:02;;;;;;;13.13;7.77;;;0.40;99.90;;;;;;7723567;28;20197;-90
2023/01/29 18:40:49;;;;;;;13.17;7.80;;;0.40;99.90;;;;;;7712328;28;20215;-89
2023/01/29 18:44:34;;;;;;;12.50;7.87;;;0.30;99.90;;;;;;7717384;28;20208;-88
2023/01/29 18:48:20;;;;;;;15.63;8.57;;;0.30;99.90;;;;;;7718917;28;20238;-90
2023/01/29 18:52:07;;;;;;;15.47;8.50;;;0.20;99.90;;;;;;7719198;28;20282;-91
2023/01/29 18:56:04;;;;;;;16.43;8.53;;;0.20;99.90;;;;;;7719035;28;20201;-90
2023/01/29 18:59:49;;;;;;;14.83;7.50;;;0.10;99.90;;;;;;7718822;28;20212;-89
2023/01/29 19:03:40;;;;;;;15.83;7.77;;;0.00;99.90;;;;;;7718431;28;20203;-89
2023/01/29 19:07:26;;;;;;;14.53;8.47;;;0.00;99.90;;;;;;7718201;28;20189;-88
2023/01/29 19:11:12;;;;;;;14.63;8.53;;;0.00;99.90;;;;;;7718258;28;20187;-88
2023/01/29 19:15:00;;;;;;;14.80;8.13;;;0.10;99.90;;;;;;7717735;28;20632;-88
2023/01/29 19:18:46;;;;;;;16.67;8.70;;;0.10;99.90;;;;;;7704464;28;20197;-87
2023/01/29 19:22:59;;;;;;;15.37;8.27;;;0.00;99.90;;;;;;7711712;28;20184;-89
2023/01/29 19:26:45;;;;;;;14.17;7.93;;;0.00;99.90;;;;;;7718043;28;20169;-89
2023/01/29 19:30:31;;;;;;;14.90;8.87;;;0.00;99.90;;;;;;7717874;28;20183;-89
2023/01/29 19:34:16;;;;;;;15.53;8.13;;;0.00;99.90;;;;;;7716925;28;20558;-89
2023/01/29 19:38:03;;;;;;;13.47;7.33;;;0.00;99.90;;;;;;7717624;28;20223;-90
2023/01/29 19:41:50;;;;;;;13.13;6.90;;;-0.10;99.90;;;;;;7717538;28;20177;-89
2023/01/29 23:52:41;;;;;;;14.70;7.80;;;-1.30;99.90;;;;;;7706254;28;20221;-88
2023/01/29 23:56:27;;;;;;;15.50;8.37;;;-1.30;99.90;;;;;;7684787;28;20229;-90
